Time;durP1;ratioP1;P1;durP2;ratioP2;P2;SDS_P1;SDS_P2;PMS_P1;PMS_P2;Temp;Humidity;BMP_temperature;BMP_pressure;BME280_temperature;BME280_humidity;BME280_pressure;Samples;Min_cycle;Max_cycle;Signal;HPM_P1;HPM_P2
2021/11/02 00:01:55;;;;;;;35.83;19.27;;;;;;;11.39;96.76;100496.75;6312111;28;20211;-74
2021/11/02 00:05:00;;;;;;;37.90;20.17;;;;;;;11.15;98.37;100493.88;6312515;28;20221;-74
2021/11/02 00:08:12;;;;;;;43.63;19.08;;;;;;;11.20;98.08;100498.66;6311437;28;20388;-74
2021/11/02 00:11:17;;;;;;;35.70;18.83;;;;;;;11.16;98.36;100495.56;6312767;28;20187;-74
2021/11/02 00:14:25;;;;;;;38.90;20.20;;;;;;;11.16;98.89;100487.38;6312705;28;20183;-74
2021/11/02 00:17:32;;;;;;;46.08;19.65;;;;;;;11.18;98.64;100496.16;6311176;28;20379;-74
2021/11/02 00:20:38;;;;;;;39.40;20.50;;;;;;;11.17;98.19;100494.50;6312035;28;20238;-74
2021/11/02 00:23:43;;;;;;;40.45;19.77;;;;;;;11.18;98.46;100490.69;6311519;28;20215;-74
2021/11/02 00:26:49;;;;;;;34.25;18.77;;;;;;;11.06;98.17;100492.53;6312199;28;20202;-74
2021/11/02 00:29:55;;;;;;;38.97;19.58;;;;;;;11.02;98.84;100494.03;6311528;28;20219;-74
2021/11/02 00:33:00;;;;;;;35.30;19.63;;;;;;;11.02;98.14;100504.97;6312148;28;20246;-74
2021/11/02 00:36:05;;;;;;;34.10;18.35;;;;;;;10.93;99.12;100509.06;6311541;28;20278;-74
2021/11/02 00:39:10;;;;;;;36.55;19.88;;;;;;;10.95;98.83;100496.03;6311089;28;20479;-74
2021/11/02 00:42:16;;;;;;;36.42;20.13;;;;;;;10.87;99.59;100509.97;6311175;28;20219;-74
2021/11/02 00:45:28;;;;;;;37.50;19.77;;;;;;;10.94;98.88;100502.53;6311018;28;20184;-74
2021/11/02 00:48:33;;;;;;;35.03;19.77;;;;;;;10.90;99.48;100492.31;6312326;28;20191;-74
2021/11/02 00:51:37;;;;;;;41.67;19.98;;;;;;;10.88;99.55;100500.72;6310932;28;20282;-74
2021/11/02 00:54:42;;;;;;;36.53;19.25;;;;;;;10.85;99.42;100503.91;6310977;28;20526;-75
2021/11/02 00:57:47;;;;;;;40.17;20.17;;;;;;;10.79;99.81;100495.78;6312144;28;20187;-75
2021/11/02 01:00:52;;;;;;;40.92;20.52;;;;;;;10.92;99.08;100507.38;6310792;28;20306;-75
2021/11/02 01:03:58;;;;;;;37.38;19.73;;;;;;;10.76;100.00;100502.53;6310756;28;20470;-74
2021/11/02 01:07:02;;;;;;;35.40;20.15;;;;;;;10.72;100.00;100498.59;6315061;28;20218;-75
2021/11/02 01:10:12;;;;;;;36.10;19.70;;;;;;;10.72;100.00;100498.59;6316824;28;20221;-75
2021/11/02 01:13:19;;;;;;;45.80;20.80;;;;;;;10.77;100.00;100493.28;6316799;28;20250;-74
2021/11/02 01:16:25;;;;;;;42.85;20.45;;;;;;;10.74;100.00;100503.81;6315560;28;20199;-74
2021/11/02 01:19:29;;;;;;;36.92;19.92;;;;;;;10.83;100.00;100497.00;6315782;28;20234;-74
2021/11/02 01:22:35;;;;;;;49.20;19.90;;;;;;;10.83;100.00;100508.75;6314776;28;20247;-75
2021/11/02 01:25:39;;;;;;;38.90;20.88;;;;;;;10.83;100.00;100503.31;6315035;28;20183;-74
2021/11/02 01:28:45;;;;;;;38.33;19.83;;;;;;;10.98;99.43;100501.03;6314792;28;20513;-75
2021/11/02 01:31:50;;;;;;;37.10;19.80;;;;;;;10.93;99.58;100495.44;6316156;28;20235;-75
2021/11/02 01:34:55;;;;;;;38.90;20.23;;;;;;;10.83;100.00;100497.84;6313904;28;20601;-75
2021/11/02 01:38:00;;;;;;;42.17;20.88;;;;;;;10.86;100.00;100485.66;6314019;28;20427;-75
2021/11/02 01:41:06;;;;;;;36.30;19.02;;;;;;;10.90;100.00;100493.16;6314996;28;20226;-74
2021/11/02 01:44:12;;;;;;;43.55;20.52;;;;;;;10.78;100.00;100503.16;6314646;28;20207;-75
2021/11/02 01:47:18;;;;;;;42.22;20.95;;;;;;;10.85;100.00;100486.69;6314233;28;20489;-74
2021/11/02 01:50:23;;;;;;;41.58;20.48;;;;;;;10.79;100.00;100485.69;6314211;28;20486;-75
2021/11/02 01:53:28;;;;;;;38.92;20.15;;;;;;;10.96;100.00;100486.78;6315407;28;20187;-75
2021/11/02 01:56:37;;;;;;;38.00;19.85;;;;;;;10.93;100.00;100491.84;6314777;28;20266;-75
2021/11/02 01:59:46;;;;;;;36.33;19.50;;;;;;;10.90;100.00;100501.34;6313612;28;20272;-75
2021/11/02 02:03:10;;;;;;;43.65;20.92;;;;;;;10.81;100.00;100494.50;6313807;28;20467;-73
2021/11/02 02:06:26;;;;;;;51.33;21.20;;;;;;;10.77;100.00;100498.75;6313537;28;20409;-74
2021/11/02 02:09:39;;;;;;;44.70;20.48;;;;;;;10.75;100.00;100479.03;6313471;28;20208;-74
2021/11/02 02:13:01;;;;;;;41.47;20.38;;;;;;;10.88;100.00;100475.31;6314342;28;20249;-74
2021/11/02 02:16:14;;;;;;;41.72;21.40;;;;;;;10.84;100.00;100485.84;6314772;28;20215;-74
2021/11/02 02:19:45;;;;;;;39.70;20.85;;;;;;;10.75;100.00;100489.97;6312915;28;20557;-74
2021/11/02 02:23:04;;;;;;;42.33;20.70;;;;;;;10.79;100.00;100491.16;6313739;28;20392;-74
2021/11/02 02:26:18;;;;;;;44.58;20.95;;;;;;;10.63;100.00;100491.78;6312522;28;20203;-74
2021/11/02 02:29:28;;;;;;;42.15;20.92;;;;;;;10.65;100.00;100481.47;6313613;28;20199;-74
2021/11/02 02:32:35;;;;;;;38.80;19.35;;;;;;;10.83;100.00;100481.47;6313853;28;20245;-74
2021/11/02 02:35:45;;;;;;;45.90;20.65;;;;;;;10.71;100.00;100488.72;6313100;28;20422;-74
2021/11/02 02:38:53;;;;;;;38.58;20.10;;;;;;;10.75;100.00;100484.50;6313412;28;20346;-74
2021/11/02 02:41:59;;;;;;;39.13;19.95;;;;;;;10.93;100.00;100480.94;6313976;28;20239;-74
2021/11/02 02:45:07;;;;;;;40.97;19.83;;;;;;;11.08;99.19;100482.22;6312183;28;20199;-74
2021/11/02 02:48:14;;;;;;;38.47;21.25;;;;;;;11.00;99.77;100477.06;6312315;28;20192;-74
2021/11/02 02:51:19;;;;;;;48.00;21.17;;;;;;;10.72;100.00;100482.22;6314341;28;20192;-74
2021/11/02 02:54:28;;;;;;;44.53;20.98;;;;;;;10.66;100.00;100486.69;6312979;28;20204;-73
2021/11/02 02:57:38;;;;;;;43.67;21.02;;;;;;;10.69;100.00;100479.94;6312253;28;20200;-75
2021/11/02 03:00:51;;;;;;;43.97;22.50;;;;;;;10.78;100.00;100473.13;6312578;28;20383;-75
2021/11/02 03:04:00;;;;;;;45.67;22.42;;;;;;;10.64;100.00;100477.06;6312933;28;20238;-74
2021/11/02 03:07:06;;;;;;;54.13;22.30;;;;;;;10.60;100.00;100475.84;6312626;28;20191;-75
2021/11/02 03:10:14;;;;;;;46.17;21.73;;;;;;;10.60;100.00;100470.41;6311511;28;20301;-74
2021/11/02 03:13:21;;;;;;;45.65;21.25;;;;;;;10.75;100.00;100479.03;6311859;28;20284;-74
2021/11/02 03:16:39;;;;;;;43.88;20.63;;;;;;;10.83;100.00;100478.75;6311890;28;20206;-75
2021/11/02 03:44:28;;;;;;;43.58;22.35;;;;;;;10.75;100.00;100500.03;6247506;28;20228;-74
2021/11/02 03:51:19;;;;;;;49.72;21.20;;;;;;;10.82;100.00;100522.63;6312346;28;20199;-73
2021/11/02 03:54:40;;;;;;;46.88;20.67;;;;;;;10.88;100.00;100522.56;6311758;28;20266;-74
2021/11/02 03:57:54;;;;;;;44.50;21.60;;;;;;;10.64;100.00;100515.25;6311858;28;20271;-74
2021/11/02 04:01:24;;;;;;;45.72;20.75;;;;;;;10.71;100.00;100521.47;6312116;28;20553;-74
2021/11/02 04:35:56;;;;;;;46.70;20.42;;;;;;;10.80;100.00;100514.66;6311378;28;20387;-74
2021/11/02 05:47:24;;;;;;;63.28;24.40;;;;;;;10.90;100.00;100487.69;6315882;28;20222;-74
2021/11/02 05:51:01;;;;;;;55.08;24.58;;;;;;;10.91;100.00;100493.97;6315007;28;20207;-74
2021/11/02 05:57:31;;;;;;;57.67;25.23;;;;;;;11.02;100.00;100487.75;6315228;28;20240;-75
2021/11/02 06:01:09;;;;;;;57.30;24.08;;;;;;;11.02;100.00;100495.94;6313680;28;20412;-74
2021/11/02 06:04:40;;;;;;;69.90;26.08;;;;;;;10.93;100.00;100491.84;6314616;28;20223;-74
2021/11/02 06:08:06;;;;;;;53.80;23.42;;;;;;;10.99;100.00;100491.75;6316131;28;20215;-74
2021/11/02 06:11:31;;;;;;;67.13;25.88;;;;;;;11.09;100.00;100493.97;6314376;28;20242;-73
2021/11/02 06:28:27;;;;;;;57.95;25.60;;;;;;;11.18;100.00;100507.09;6314740;28;20215;-75
2021/11/02 06:31:34;;;;;;;55.75;26.17;;;;;;;11.22;100.00;100515.66;6314715;28;20183;-74
2021/11/02 06:34:47;;;;;;;66.75;25.98;;;;;;;11.12;100.00;100513.44;6314475;28;20265;-74
2021/11/02 06:38:29;;;;;;;58.45;24.50;;;;;;;11.26;100.00;100514.13;6314742;28;20222;-74
2021/11/02 06:48:36;;;;;;;60.13;26.65;;;;;;;11.05;100.00;100518.16;6313008;28;20183;-75
2021/11/02 06:59:20;;;;;;;54.53;25.67;;;;;;;11.16;100.00;100519.31;6357864;28;20225;-74
2021/11/02 07:16:35;;;;;;;57.35;24.23;;;;;;;11.22;100.00;100521.94;6359009;28;20182;-76
2021/11/02 07:19:50;;;;;;;56.70;25.10;;;;;;;11.26;100.00;100525.91;6358356;28;20250;-75
2021/11/02 07:23:04;;;;;;;58.08;25.77;;;;;;;11.35;100.00;100522.84;6358801;28;20218;-75
2021/11/02 07:26:25;;;;;;;71.25;26.15;;;;;;;11.26;100.00;100531.34;6358749;28;20189;-75
2021/11/02 07:30:12;;;;;;;61.95;25.52;;;;;;;11.39;100.00;100532.25;6358397;28;20258;-75
2021/11/02 08:45:25;;;;;;;54.72;23.20;;;;;;;11.24;100.00;100528.03;6340064;28;20187;-75
2021/11/02 08:48:31;;;;;;;51.05;23.95;;;;;;;11.25;100.00;100537.88;6338905;28;20371;-75
2021/11/02 08:51:35;;;;;;;54.75;23.88;;;;;;;11.32;100.00;100530.41;6321725;28;20244;-75
2021/11/02 08:54:43;;;;;;;51.75;23.60;;;;;;;11.45;100.00;100531.34;6339522;28;20273;-75
2021/11/02 08:57:48;;;;;;;47.88;22.50;;;;;;;11.43;100.00;100530.75;6339902;28;20222;-75
2021/11/02 09:00:54;;;;;;;50.67;22.63;;;;;;;11.56;99.91;100519.59;6339578;28;20183;-75
2021/11/02 09:04:02;;;;;;;49.28;23.63;;;;;;;11.48;100.00;100522.69;6339541;28;20198;-74
2021/11/02 09:07:10;;;;;;;51.08;21.98;;;;;;;11.47;100.00;100521.84;6339669;28;20289;-74
2021/11/02 09:10:18;;;;;;;41.08;21.48;;;;;;;11.59;99.92;100513.69;6339470;28;20246;-75
2021/11/02 09:13:24;;;;;;;40.53;21.27;;;;;;;11.51;100.00;100511.28;6339321;28;20190;-74
2021/11/02 09:16:28;;;;;;;42.83;20.20;;;;;;;11.63;98.84;100520.38;6338657;28;20214;-75
2021/11/02 09:19:35;;;;;;;39.58;20.05;;;;;;;11.59;99.13;100520.00;6338136;28;20374;-75
2021/11/02 09:22:41;;;;;;;39.63;19.70;;;;;;;11.56;98.72;100519.59;6338118;28;20478;-75
2021/11/02 09:25:51;;;;;;;43.60;19.90;;;;;;;11.57;98.16;100521.28;6339315;28;20198;-75
2021/11/02 09:28:57;;;;;;;43.55;20.38;;;;;;;11.69;97.36;100514.00;6338316;28;20183;-75
2021/11/02 09:32:01;;;;;;;40.63;19.83;;;;;;;11.56;98.58;100514.16;6338754;28;20182;-75
2021/11/02 09:35:09;;;;;;;44.72;20.48;;;;;;;11.54;98.71;100505.34;6339228;28;20206;-75
2021/11/02 09:38:24;;;;;;;42.85;20.05;;;;;;;11.40;100.00;100509.34;6338823;28;20187;-74
2021/11/02 09:42:13;;;;;;;42.72;18.35;;;;;;;11.37;100.00;100509.78;6339079;28;20191;-75
2021/11/02 09:45:44;;;;;;;46.10;19.52;;;;;;;11.29;100.00;100509.06;6338964;28;20256;-75
2021/11/02 09:49:21;;;;;;;45.05;19.60;;;;;;;11.50;99.79;100515.09;6296113;28;20198;-75
2021/11/02 09:52:50;;;;;;;54.80;20.83;;;;;;;11.55;99.58;100507.03;6337127;28;20389;-75
2021/11/02 09:56:03;;;;;;;52.90;20.13;;;;;;;11.57;99.07;100510.38;6325810;28;20473;-75
2021/11/02 09:59:42;;;;;;;49.72;21.38;;;;;;;11.26;100.00;100503.22;6337325;28;20182;-75
2021/11/02 10:03:17;;;;;;;50.50;22.00;;;;;;;11.34;100.00;100500.16;6338753;28;20183;-75
2021/11/02 10:07:17;;;;;;;51.90;22.83;;;;;;;11.32;100.00;100514.03;6337080;28;20473;-75
2021/11/02 10:10:38;;;;;;;55.65;23.00;;;;;;;11.43;100.00;100506.16;6336238;28;20203;-75
2021/11/02 10:14:01;;;;;;;46.50;21.27;;;;;;;11.41;100.00;100505.53;6337926;28;20183;-75
2021/11/02 10:17:38;;;;;;;48.63;21.83;;;;;;;11.30;100.00;100505.25;6336956;28;20547;-75
2021/11/02 10:21:12;;;;;;;50.03;21.60;;;;;;;11.37;100.00;100498.88;6337886;28;20187;-75
2021/11/02 10:24:56;;;;;;;49.78;21.00;;;;;;;11.39;100.00;100494.00;6337679;28;20254;-75
2021/11/02 10:29:07;;;;;;;49.22;21.10;;;;;;;11.51;100.00;100500.34;6336887;28;20193;-74
2021/11/02 10:32:15;;;;;;;44.50;21.05;;;;;;;11.49;100.00;100491.56;6332064;28;20199;-75
2021/11/02 10:35:30;;;;;;;38.55;20.35;;;;;;;11.43;100.00;100487.84;6337624;28;20242;-75
2021/11/02 10:38:43;;;;;;;41.60;20.23;;;;;;;11.32;100.00;100485.91;6337524;28;20252;-75
2021/11/02 10:42:11;;;;;;;47.13;21.58;;;;;;;11.34;100.00;100483.78;6320023;28;20183;-75
2021/11/02 10:45:26;;;;;;;47.53;21.25;;;;;;;11.09;100.00;100475.69;6336412;28;20233;-75
2021/11/02 10:48:41;;;;;;;50.85;22.48;;;;;;;11.19;100.00;100481.47;6319063;28;20210;-75
2021/11/02 10:51:55;;;;;;;51.45;22.50;;;;;;;11.16;100.00;100481.06;6337392;28;20190;-75
2021/11/02 10:55:08;;;;;;;46.42;23.10;;;;;;;11.07;100.00;100472.34;6319482;28;20279;-75
2021/11/02 10:58:46;;;;;;;55.78;23.15;;;;;;;11.11;100.00;100472.75;6336446;28;20214;-74
2021/11/02 11:01:55;;;;;;;56.83;23.77;;;;;;;11.05;100.00;100469.03;6336188;28;20214;-75
2021/11/02 11:05:02;;;;;;;49.70;23.15;;;;;;;11.22;99.61;100475.50;6336589;28;20186;-75
2021/11/02 11:08:07;;;;;;;54.60;23.00;;;;;;;11.26;99.31;100471.28;6336091;28;20183;-75
2021/11/02 11:11:13;;;;;;;54.53;23.02;;;;;;;11.16;99.36;100470.16;6337489;28;20189;-75
2021/11/02 11:14:24;;;;;;;48.55;23.08;;;;;;;11.03;99.07;100465.69;6335963;28;20379;-75
2021/11/02 11:17:29;;;;;;;55.75;22.70;;;;;;;10.93;97.45;100459.94;6336001;28;20206;-75
2021/11/02 11:20:37;;;;;;;51.70;23.80;;;;;;;10.96;97.47;100464.94;6336054;28;20182;-75
2021/11/02 11:23:43;;;;;;;59.85;24.45;;;;;;;10.92;96.03;100462.88;6337085;28;20214;-74
2021/11/02 11:26:50;;;;;;;58.08;24.67;;;;;;;10.94;94.84;100467.03;6337223;28;20222;-75
2021/11/02 11:30:02;;;;;;;52.97;24.50;;;;;;;11.03;94.42;100454.78;6319026;28;20293;-75
2021/11/02 11:33:08;;;;;;;56.65;24.15;;;;;;;11.04;94.02;100467.34;6336858;28;20190;-75
2021/11/02 11:36:17;;;;;;;49.00;23.95;;;;;;;11.07;93.38;100458.69;6337153;28;20242;-74
2021/11/02 11:39:23;;;;;;;47.20;21.50;;;;;;;11.03;92.90;100454.78;6336619;28;20182;-75
2021/11/02 11:42:32;;;;;;;48.67;23.45;;;;;;;11.08;93.65;100465.84;6341607;28;20190;-78
2021/11/02 11:45:38;;;;;;;54.38;23.48;;;;;;;11.04;92.70;100456.44;6341956;28;20256;-75
2021/11/02 11:48:46;;;;;;;45.42;23.08;;;;;;;11.02;92.50;100458.56;6341764;28;20215;-75
2021/11/02 11:51:56;;;;;;;51.65;24.42;;;;;;;10.95;92.85;100457.81;6340392;28;20533;-75
2021/11/02 11:55:05;;;;;;;47.80;22.42;;;;;;;11.04;92.15;100459.16;6341159;28;20270;-75
2021/11/02 11:58:13;;;;;;;45.90;23.33;;;;;;;10.97;93.32;100452.94;6341342;28;20183;-75
2021/11/02 12:01:28;;;;;;;53.15;23.88;;;;;;;10.98;93.30;100457.34;6341082;28;20182;-75
2021/11/02 12:04:38;;;;;;;52.80;23.05;;;;;;;10.97;93.47;100455.69;6341216;28;20221;-75
2021/11/02 12:07:54;;;;;;;44.65;22.17;;;;;;;10.99;91.80;100448.09;6341395;28;20187;-75
2021/11/02 12:11:02;;;;;;;43.95;22.17;;;;;;;11.05;92.06;100449.91;6340978;28;20190;-75
2021/11/02 12:14:08;;;;;;;56.70;24.50;;;;;;;11.01;91.35;100446.00;6341238;28;20190;-74
2021/11/02 12:17:17;;;;;;;48.15;22.20;;;;;;;11.00;91.06;100452.50;6341084;28;20207;-74
2021/11/02 12:20:23;;;;;;;43.42;20.52;;;;;;;10.91;91.40;100445.69;6340995;28;20254;-74
2021/11/02 12:23:40;;;;;;;43.60;21.05;;;;;;;11.08;88.37;100460.38;6339598;28;20449;-74
2021/11/02 12:26:47;;;;;;;44.75;21.23;;;;;;;11.00;88.38;100444.31;6341279;28;20252;-74
2021/11/02 12:29:52;;;;;;;38.72;20.80;;;;;;;11.02;89.07;100453.09;6339585;28;20466;-75
2021/11/02 12:32:59;;;;;;;37.42;21.13;;;;;;;10.98;87.29;100440.97;6340663;28;20190;-75
2021/11/02 12:36:05;;;;;;;43.17;21.05;;;;;;;10.93;88.00;100438.09;6339146;28;20207;-74
2021/11/02 12:39:12;;;;;;;36.38;19.42;;;;;;;10.96;87.10;100437.66;6340207;28;20183;-74
2021/11/02 12:42:20;;;;;;;40.67;20.20;;;;;;;11.00;86.10;100435.28;6339139;28;20470;-74
2021/11/02 12:45:35;;;;;;;36.40;20.13;;;;;;;10.97;86.75;100433.00;6339994;28;20246;-74
2021/11/02 12:48:42;;;;;;;39.92;19.48;;;;;;;10.94;87.16;100431.56;6340261;28;20214;-74
2021/11/02 12:51:55;;;;;;;37.00;20.15;;;;;;;11.07;85.87;100433.28;6338879;28;20348;-74
2021/11/02 12:55:06;;;;;;;37.25;20.08;;;;;;;10.99;87.26;100428.16;6338985;28;20235;-74
2021/11/02 12:58:18;;;;;;;36.50;19.27;;;;;;;10.96;87.29;100426.75;6338717;28;20405;-74
2021/11/02 13:01:33;;;;;;;36.75;19.23;;;;;;;10.99;86.83;100437.16;6339983;28;20221;-74
2021/11/02 13:04:41;;;;;;;34.85;19.17;;;;;;;10.96;87.06;100436.81;6339721;28;20250;-74
2021/11/02 13:07:56;;;;;;;33.83;18.55;;;;;;;10.92;86.66;100424.66;6339986;28;20224;-75
2021/11/02 13:11:08;;;;;;;34.67;19.75;;;;;;;10.92;86.42;100435.59;6339773;28;20187;-74
2021/11/02 13:14:16;;;;;;;31.73;17.95;;;;;;;10.92;85.47;100430.97;6339592;28;20189;-73
2021/11/02 13:17:25;;;;;;;39.63;19.35;;;;;;;10.87;86.11;100439.00;6339417;28;20258;-74
2021/11/02 13:20:35;;;;;;;34.28;18.75;;;;;;;10.97;85.77;100425.66;6339567;28;20214;-74
2021/11/02 13:23:45;;;;;;;34.55;18.42;;;;;;;10.88;84.99;100429.78;6339585;28;20186;-74
2021/11/02 13:26:54;;;;;;;35.75;18.48;;;;;;;10.96;84.57;100421.28;6339075;28;20226;-75
2021/11/02 13:30:22;;;;;;;36.47;19.20;;;;;;;10.76;85.37;100420.66;6339435;28;20258;-75
2021/11/02 13:33:29;;;;;;;35.53;17.55;;;;;;;10.83;84.84;100426.06;6337972;28;20497;-74
2021/11/02 13:36:33;;;;;;;29.63;18.20;;;;;;;10.89;84.53;100431.41;6338444;28;20211;-75
2021/11/02 13:39:52;;;;;;;32.78;18.02;;;;;;;10.81;85.12;100423.53;6337921;28;20182;-75
2021/11/02 13:42:57;;;;;;;36.35;19.00;;;;;;;10.71;86.10;100422.44;6338022;28;20183;-75
2021/11/02 13:46:02;;;;;;;32.05;18.98;;;;;;;10.70;86.37;100432.50;6338749;28;20214;-75
2021/11/02 13:49:10;;;;;;;35.80;19.00;;;;;;;10.96;83.76;100431.34;6337634;28;20183;-75
2021/11/02 13:52:14;;;;;;;37.58;18.33;;;;;;;10.87;83.92;100436.28;6337386;28;20379;-76
2021/11/02 13:55:19;;;;;;;34.70;18.75;;;;;;;10.81;84.45;100431.72;6313615;28;20184;-75
2021/11/02 13:58:24;;;;;;;30.38;17.60;;;;;;;10.93;83.81;100438.09;6313329;28;20213;-75
2021/11/02 14:01:31;;;;;;;37.50;18.30;;;;;;;10.66;84.86;100442.19;6313325;28;20195;-75
2021/11/02 14:04:39;;;;;;;34.60;19.20;;;;;;;10.80;84.76;100449.19;6311461;28;20415;-75
2021/11/02 14:07:44;;;;;;;31.52;17.85;;;;;;;10.92;83.82;100441.88;6313002;28;20187;-75
2021/11/02 14:10:53;;;;;;;33.83;18.30;;;;;;;10.73;84.16;100442.13;6312875;28;20183;-75
2021/11/02 14:13:58;;;;;;;37.38;18.55;;;;;;;10.64;84.82;100449.78;6312973;28;20251;-75
2021/11/02 14:17:15;;;;;;;32.75;19.17;;;;;;;10.70;84.01;100448.88;6312731;28;20207;-76
2021/11/02 14:20:36;;;;;;;35.17;19.15;;;;;;;10.65;83.87;100441.38;6313086;28;20251;-75
2021/11/02 14:23:42;;;;;;;30.85;17.20;;;;;;;10.71;83.54;100436.88;6313039;28;20238;-75
2021/11/02 14:26:48;;;;;;;31.85;18.30;;;;;;;10.63;84.73;100448.13;6312179;28;20241;-75
2021/11/02 14:29:56;;;;;;;32.42;18.52;;;;;;;10.49;85.36;100441.97;6313650;28;20191;-75
2021/11/02 14:33:06;;;;;;;39.92;19.00;;;;;;;10.70;83.57;100437.97;6315788;28;20195;-75
2021/11/02 14:36:10;;;;;;;33.80;18.73;;;;;;;10.73;84.34;100437.50;6317094;28;20190;-75
2021/11/02 14:39:16;;;;;;;36.90;18.70;;;;;;;10.68;84.41;100429.19;6311609;28;20207;-74
2021/11/02 14:42:42;;;;;;;32.83;18.38;;;;;;;10.56;84.50;100433.69;6312666;28;20246;-74
2021/11/02 14:45:49;;;;;;;33.20;17.25;;;;;;;10.74;83.28;100441.88;6311113;28;20404;-75
2021/11/02 14:48:54;;;;;;;30.35;18.00;;;;;;;10.70;83.74;100443.41;6312211;28;20260;-75
2021/11/02 14:52:00;;;;;;;33.55;17.10;;;;;;;10.52;84.05;100446.13;6311161;28;20487;-75
2021/11/02 14:55:05;;;;;;;38.90;18.27;;;;;;;10.52;84.11;100446.97;6334635;28;20257;-75
2021/11/02 14:58:11;;;;;;;30.73;17.75;;;;;;;10.43;85.08;100436.56;6337472;28;20312;-75
2021/11/02 15:01:19;;;;;;;32.70;17.85;;;;;;;10.58;83.61;100434.31;6336103;28;20254;-75
2021/11/02 15:04:25;;;;;;;35.13;17.40;;;;;;;10.61;83.92;100428.41;6337268;28;20187;-75
2021/11/02 15:07:30;;;;;;;33.33;18.00;;;;;;;10.56;84.07;100420.06;6336784;28;20250;-74
2021/11/02 15:10:34;;;;;;;29.05;17.80;;;;;;;10.43;84.13;100431.13;6337146;28;20183;-74
2021/11/02 15:13:39;;;;;;;31.33;16.90;;;;;;;10.52;83.73;100416.13;6337378;28;20218;-75
2021/11/02 15:16:45;;;;;;;33.60;16.92;;;;;;;10.41;84.50;100427.78;6341866;28;20215;-75
2021/11/02 15:19:50;;;;;;;35.10;17.60;;;;;;;10.45;83.67;100423.56;6341815;28;20273;-74
2021/11/02 15:22:55;;;;;;;28.63;16.85;;;;;;;10.49;83.64;100425.59;6342397;28;20183;-75
2021/11/02 15:25:59;;;;;;;26.65;15.45;;;;;;;10.57;82.48;100417.13;6342204;28;20194;-75
2021/11/02 15:29:03;;;;;;;30.52;16.60;;;;;;;10.55;82.80;100418.41;6341691;28;20193;-75
2021/11/02 15:32:11;;;;;;;26.30;16.02;;;;;;;10.47;82.72;100411.38;6340842;28;20293;-74
2021/11/02 15:35:17;;;;;;;28.83;16.25;;;;;;;10.33;83.41;100409.81;6341988;28;20220;-75
2021/11/02 15:38:27;;;;;;;30.02;15.60;;;;;;;10.29;83.20;100402.31;6340501;28;20256;-75
2021/11/02 15:41:32;;;;;;;25.70;16.15;;;;;;;10.37;82.28;100405.59;6340658;28;20501;-75
2021/11/02 15:44:36;;;;;;;30.05;15.52;;;;;;;10.36;81.67;100422.16;6341692;28;20183;-75
2021/11/02 15:47:46;;;;;;;33.42;16.55;;;;;;;10.36;82.23;100408.53;6341701;28;20219;-75
2021/11/02 15:50:53;;;;;;;30.25;15.20;;;;;;;10.39;82.74;100408.09;6341702;28;20250;-75
2021/11/02 15:53:58;;;;;;;30.25;16.23;;;;;;;10.19;82.47;100412.91;6341832;28;20234;-75
2021/11/02 15:57:10;;;;;;;32.15;16.00;;;;;;;10.28;82.23;100417.00;6340333;28;20183;-75
2021/11/02 16:00:16;;;;;;;28.80;16.10;;;;;;;10.21;82.93;100408.06;6341008;28;20183;-75
2021/11/02 16:03:30;;;;;;;27.77;15.73;;;;;;;10.20;83.00;100409.13;6341115;28;20183;-75
2021/11/02 16:06:35;;;;;;;26.13;15.38;;;;;;;10.24;82.96;100410.34;6340469;28;20183;-75
2021/11/02 16:09:49;;;;;;;26.30;16.05;;;;;;;10.18;82.30;100405.78;6339901;28;20497;-75
2021/11/02 16:12:53;;;;;;;29.05;15.95;;;;;;;10.39;81.39;100414.38;6339905;28;20191;-75
2021/11/02 16:16:00;;;;;;;31.05;16.98;;;;;;;10.23;81.08;100414.13;6339499;28;20470;-74
2021/11/02 16:19:08;;;;;;;29.17;16.38;;;;;;;10.37;80.84;100410.22;6340825;28;20214;-75
2021/11/02 16:22:12;;;;;;;29.88;15.85;;;;;;;10.33;80.93;100408.97;6340550;28;20190;-75
2021/11/02 16:25:16;;;;;;;30.10;16.10;;;;;;;10.28;81.22;100417.00;6338999;28;20183;-75
2021/11/02 16:28:23;;;;;;;31.38;16.80;;;;;;;10.20;81.39;100403.66;6340450;28;20194;-75
2021/11/02 16:31:30;;;;;;;31.63;17.08;;;;;;;10.04;81.81;100405.03;6339447;28;20274;-74
2021/11/02 16:34:44;;;;;;;29.85;15.93;;;;;;;10.20;80.94;100403.66;6339867;28;20183;-75
2021/11/02 16:37:48;;;;;;;34.45;16.33;;;;;;;9.98;81.32;100390.44;6340592;28;20239;-74
2021/11/02 16:40:55;;;;;;;33.17;16.92;;;;;;;10.20;80.68;100406.38;6340498;28;20189;-74
2021/11/02 16:44:01;;;;;;;29.80;16.25;;;;;;;10.19;80.54;100399.28;6339467;28;20254;-74
2021/11/02 16:47:08;;;;;;;28.73;16.33;;;;;;;10.07;81.15;100402.72;6339083;28;20380;-76
2021/11/02 16:50:14;;;;;;;31.20;16.75;;;;;;;10.21;80.00;100408.91;6339007;28;20407;-74
2021/11/02 16:53:25;;;;;;;31.02;16.42;;;;;;;10.06;80.53;100392.03;6339369;28;20233;-74
2021/11/02 16:56:30;;;;;;;33.47;16.60;;;;;;;10.01;80.33;100400.06;6340050;28;20214;-74
2021/11/02 16:59:53;;;;;;;30.73;17.23;;;;;;;9.90;80.55;100393.44;6339812;28;20238;-75
2021/11/02 17:03:07;;;;;;;34.13;16.90;;;;;;;10.13;80.24;100397.44;6339626;28;20183;-74
2021/11/02 17:06:16;;;;;;;36.72;16.88;;;;;;;10.08;79.80;100396.22;6339754;28;20191;-74
2021/11/02 17:09:24;;;;;;;34.47;17.67;;;;;;;9.76;81.39;100401.94;6339868;28;20264;-74
2021/11/02 17:12:28;;;;;;;36.00;17.35;;;;;;;9.69;81.69;100404.72;6338426;28;20280;-74
2021/11/02 17:15:35;;;;;;;31.00;17.70;;;;;;;9.91;81.26;100406.00;6339294;28;20183;-74
2021/11/02 17:18:46;;;;;;;33.75;17.15;;;;;;;9.94;80.85;100397.38;6339285;28;20207;-74
2021/11/02 17:21:54;;;;;;;32.50;16.98;;;;;;;9.89;81.53;100405.38;6339154;28;20246;-74
2021/11/02 17:24:59;;;;;;;38.40;17.05;;;;;;;9.98;80.37;100405.94;6338364;28;20486;-74
2021/11/02 17:28:04;;;;;;;31.77;16.33;;;;;;;9.88;80.52;100409.19;6338626;28;20183;-74
2021/11/02 17:31:09;;;;;;;30.23;17.55;;;;;;;9.74;81.84;100404.88;6339374;28;20285;-74
2021/11/02 17:34:20;;;;;;;34.75;17.17;;;;;;;9.78;81.03;100408.84;6338055;28;20370;-74
2021/11/02 17:37:27;;;;;;;32.55;17.05;;;;;;;9.81;81.83;100400.22;6337087;28;20183;-74
2021/11/02 17:40:35;;;;;;;27.65;17.20;;;;;;;9.75;81.48;100406.56;6339134;28;20207;-74
2021/11/02 17:43:43;;;;;;;41.28;18.00;;;;;;;9.78;80.56;100406.13;6338729;28;20226;-74
2021/11/02 17:46:48;;;;;;;33.97;17.55;;;;;;;9.77;81.23;100409.91;6338623;28;20260;-74
2021/11/02 17:49:52;;;;;;;32.20;16.70;;;;;;;9.89;80.63;100402.66;6320280;28;20272;-74
2021/11/02 17:53:00;;;;;;;30.60;17.48;;;;;;;9.79;81.19;100407.78;6337494;28;20470;-74
2021/11/02 17:56:09;;;;;;;31.98;17.23;;;;;;;9.93;80.93;100411.25;6338277;28;20204;-74
2021/11/02 17:59:13;;;;;;;30.95;16.55;;;;;;;9.89;80.82;100399.94;6338473;28;20215;-75
2021/11/02 18:02:20;;;;;;;33.50;17.60;;;;;;;9.94;80.85;100404.72;6337219;28;20186;-75
2021/11/02 18:05:26;;;;;;;32.25;17.08;;;;;;;9.91;80.56;100400.53;6337632;28;20215;-75
2021/11/02 18:08:32;;;;;;;31.13;17.48;;;;;;;9.88;81.43;100394.72;6338710;28;20189;-75
2021/11/02 18:11:37;;;;;;;27.55;16.55;;;;;;;9.88;81.81;100401.00;6337451;28;20183;-76
2021/11/02 18:14:41;;;;;;;34.08;16.95;;;;;;;9.71;82.42;100405.31;6338563;28;20257;-75
2021/11/02 18:17:47;;;;;;;34.10;17.77;;;;;;;9.94;81.67;100405.56;6338069;28;20187;-75
2021/11/02 18:20:54;;;;;;;32.03;17.27;;;;;;;9.98;80.97;100395.06;6336905;28;20255;-75
2021/11/02 18:24:03;;;;;;;29.83;16.65;;;;;;;9.91;81.24;100411.44;6338206;28;20228;-75
2021/11/02 18:27:08;;;;;;;40.65;16.90;;;;;;;9.76;82.47;100402.78;6338098;28;20280;-75
2021/11/02 18:30:16;;;;;;;34.10;17.15;;;;;;;9.81;82.52;100399.41;6336665;28;20474;-75